createdAt,value
2023-05-16T00:01:59.303Z,12.29
2023-05-16T00:04:27.698Z,12.23
2023-05-16T00:06:57.260Z,12.16
2023-05-16T00:09:25.395Z,12.20
2023-05-16T00:11:53.480Z,12.19
2023-05-16T00:14:21.919Z,12.20
2023-05-16T00:16:50.842Z,12.20
2023-05-16T00:19:19.160Z,12.18
2023-05-16T00:21:47.390Z,12.16
2023-05-16T00:24:17.105Z,12.07
2023-05-16T00:26:45.161Z,12.09
2023-05-16T00:29:13.256Z,12.09
2023-05-16T00:31:41.528Z,12.10
2023-05-16T00:34:09.847Z,12.09
2023-05-16T00:36:38.041Z,12.10
2023-05-16T00:39:06.515Z,12.05
2023-05-16T00:41:36.664Z,12.10
2023-05-16T00:44:04.936Z,12.08
2023-05-16T00:46:33.134Z,12.05
2023-05-16T00:49:01.480Z,12.09
2023-05-16T00:51:30.334Z,12.00
2023-05-16T00:53:58.897Z,12.05
2023-05-16T00:56:27.192Z,12.06
2023-05-16T00:58:56.838Z,12.01
2023-05-16T01:01:27.611Z,12.03
2023-05-16T01:03:56.573Z,12.05
2023-05-16T01:06:24.793Z,12.07
2023-05-16T01:08:52.956Z,12.03
2023-05-16T01:11:28.189Z,12.03
2023-05-16T01:14:05.188Z,11.96
2023-05-16T01:16:41.286Z,12.01
2023-05-16T01:19:22.476Z,12.01
2023-05-16T01:22:02.479Z,11.96
2023-05-16T01:24:35.780Z,11.97
2023-05-16T01:27:07.173Z,11.97
2023-05-16T01:29:35.312Z,11.99
2023-05-16T01:32:03.657Z,12.02
2023-05-16T01:34:32.056Z,11.99
2023-05-16T01:37:10.612Z,12.02
2023-05-16T01:39:45.453Z,11.96
2023-05-16T01:42:17.180Z,12.04
2023-05-16T01:44:51.939Z,12.03
2023-05-16T01:47:22.267Z,12.04
2023-05-16T01:50:02.407Z,12.08
2023-05-16T01:52:36.765Z,12.05
2023-05-16T01:55:11.379Z,11.98
2023-05-16T01:57:42.332Z,12.04
2023-05-16T02:00:12.139Z,12.04
2023-05-16T02:02:43.087Z,12.05
2023-05-16T02:05:11.469Z,12.07
2023-05-16T02:07:40.161Z,12.05
2023-05-16T02:10:09.414Z,12.09
2023-05-16T02:12:37.962Z,12.07
2023-05-16T02:15:08.986Z,12.05
2023-05-16T02:17:37.206Z,12.07
2023-05-16T02:20:07.243Z,12.06
2023-05-16T02:22:36.225Z,12.08
2023-05-16T02:25:05.285Z,12.04
2023-05-16T02:27:33.970Z,12.04
2023-05-16T02:30:02.379Z,12.12
2023-05-16T02:32:32.046Z,12.10
2023-05-16T02:35:00.195Z,12.09
2023-05-16T02:37:28.311Z,12.09
2023-05-16T02:39:56.468Z,12.14
2023-05-16T02:42:24.567Z,12.12
2023-05-16T02:44:52.817Z,12.15
2023-05-16T02:47:21.165Z,12.14
2023-05-16T02:49:52.316Z,12.13
2023-05-16T02:52:20.647Z,12.11
2023-05-16T02:55:04.128Z,12.10
2023-05-16T02:57:37.548Z,12.08
2023-05-16T03:00:06.726Z,12.07
2023-05-16T03:02:35.038Z,12.10
2023-05-16T03:05:05.345Z,12.04
2023-05-16T03:07:33.536Z,12.05
2023-05-16T03:10:01.799Z,12.00
2023-05-16T03:12:30.011Z,11.98
2023-05-16T03:14:58.511Z,11.96
2023-05-16T03:17:26.755Z,11.93
2023-05-16T03:19:55.173Z,11.98
2023-05-16T03:22:24.694Z,11.93
2023-05-16T03:24:52.756Z,11.99
2023-05-16T03:27:21.096Z,11.98
2023-05-16T03:29:51.593Z,12.02
2023-05-16T03:32:19.954Z,12.07
2023-05-16T03:34:48.068Z,12.10
2023-05-16T03:37:16.577Z,12.04
2023-05-16T03:39:46.201Z,12.14
2023-05-16T03:42:14.259Z,12.17
2023-05-16T03:44:42.475Z,12.18
2023-05-16T03:47:10.783Z,12.21
2023-05-16T03:49:38.910Z,12.20
2023-05-16T03:52:07.472Z,12.24
2023-05-16T03:54:35.518Z,12.25
2023-05-16T03:57:05.617Z,12.24
2023-05-16T03:59:34.676Z,12.25
2023-05-16T04:02:02.932Z,12.26
2023-05-16T04:04:31.189Z,12.28
2023-05-16T04:06:59.665Z,12.20
2023-05-16T04:09:27.918Z,12.28
2023-05-16T04:11:56.732Z,12.25
2023-05-16T04:14:26.233Z,12.22
2023-05-16T04:16:54.631Z,12.19
2023-05-16T04:19:23.087Z,12.22
2023-05-16T04:21:52.284Z,12.14
2023-05-16T04:24:20.435Z,12.19
2023-05-16T04:26:48.620Z,12.19
2023-05-16T04:29:17.378Z,12.22
2023-05-16T04:31:46.922Z,12.31
2023-05-16T04:34:16.058Z,12.34
2023-05-16T04:36:44.241Z,12.33
2023-05-16T04:39:12.495Z,12.23
2023-05-16T04:41:40.616Z,12.23
2023-05-16T04:44:09.009Z,12.24
2023-05-16T04:46:37.150Z,12.21
2023-05-16T04:49:06.985Z,12.24
2023-05-16T04:51:35.092Z,12.24
2023-05-16T04:54:03.224Z,12.17
2023-05-16T04:56:31.456Z,12.13
2023-05-16T04:58:59.560Z,12.13
2023-05-16T05:01:27.884Z,12.12
2023-05-16T05:03:56.188Z,12.14
2023-05-16T05:06:25.710Z,12.13
2023-05-16T05:08:55.243Z,12.21
2023-05-16T05:11:23.400Z,12.20
2023-05-16T05:13:52.923Z,12.20
2023-05-16T05:16:21.288Z,12.28
2023-05-16T05:18:49.779Z,12.27
2023-05-16T05:21:18.557Z,12.18
2023-05-16T05:23:49.773Z,12.13
2023-05-16T05:26:18.178Z,12.13
2023-05-16T05:28:53.991Z,12.17
2023-05-16T05:31:29.799Z,12.21
2023-05-16T05:33:58.042Z,12.22
2023-05-16T05:36:26.222Z,12.21
2023-05-16T05:38:55.785Z,12.20
2023-05-16T05:41:24.561Z,12.23
2023-05-16T05:43:52.876Z,12.20
2023-05-16T05:46:21.043Z,12.11
2023-05-16T05:48:49.670Z,12.03
2023-05-16T05:51:17.899Z,12.07
2023-05-16T05:53:46.249Z,12.13
2023-05-16T05:56:15.893Z,12.05
2023-05-16T05:58:43.994Z,12.03
2023-05-16T06:01:12.381Z,12.07
2023-05-16T06:03:40.693Z,12.11
2023-05-16T06:06:09.710Z,12.11
2023-05-16T06:08:37.824Z,12.10
2023-05-16T06:11:06.461Z,12.01
2023-05-16T06:13:36.453Z,12.09
2023-05-16T06:16:06.230Z,12.02
2023-05-16T06:18:35.817Z,12.03
2023-05-16T06:21:04.286Z,12.02
2023-05-16T06:23:32.675Z,12.07
2023-05-16T06:26:00.925Z,12.11
2023-05-16T06:28:29.134Z,12.08
2023-05-16T06:30:58.886Z,12.10
2023-05-16T06:33:27.229Z,11.97
2023-05-16T06:35:55.389Z,11.92
2023-05-16T06:38:23.558Z,11.85
2023-05-16T06:40:51.669Z,11.68
2023-05-16T06:43:19.952Z,11.68
2023-05-16T06:45:48.239Z,11.76
2023-05-16T06:48:19.970Z,11.77
2023-05-16T06:50:49.507Z,11.71
2023-05-16T06:53:17.716Z,11.73
2023-05-16T06:55:46.103Z,11.79
2023-05-16T06:58:14.381Z,11.75
2023-05-16T07:00:44.210Z,11.79
2023-05-16T07:03:12.518Z,11.78
2023-05-16T07:05:42.555Z,11.89
2023-05-16T07:08:12.414Z,11.86
2023-05-16T07:10:40.983Z,11.79
2023-05-16T07:13:09.229Z,11.88
2023-05-16T07:15:37.601Z,11.92
2023-05-16T07:18:06.043Z,11.90
2023-05-16T07:20:34.581Z,11.97
2023-05-16T07:23:04.240Z,11.97
2023-05-16T07:25:33.686Z,12.04
2023-05-16T07:28:04.585Z,12.06
2023-05-16T07:30:33.120Z,12.10
2023-05-16T07:33:01.458Z,12.17
2023-05-16T07:35:29.968Z,12.08
2023-05-16T07:37:58.494Z,12.07
2023-05-16T07:40:29.644Z,12.18
2023-05-16T07:43:10.034Z,12.17
2023-05-16T07:45:38.476Z,12.20
2023-05-16T07:48:07.140Z,12.11
2023-05-16T07:50:35.679Z,12.22
2023-05-16T07:53:03.951Z,12.26
2023-05-16T07:55:33.687Z,12.31
2023-05-16T07:58:02.150Z,12.39
2023-05-16T08:00:30.981Z,12.24
2023-05-16T08:02:59.445Z,12.31
2023-05-16T08:05:28.389Z,12.31
2023-05-16T08:07:56.955Z,12.28
2023-05-16T08:10:25.220Z,12.25
2023-05-16T08:12:54.985Z,12.12
2023-05-16T08:15:23.350Z,12.39
2023-05-16T08:17:51.938Z,12.44
2023-05-16T08:20:20.460Z,12.39
2023-05-16T08:22:48.831Z,12.33
2023-05-16T08:25:17.130Z,12.33
2023-05-16T08:27:46.745Z,12.49
2023-05-16T08:30:16.892Z,12.47
2023-05-16T08:32:45.347Z,12.44
2023-05-16T08:35:14.021Z,12.42
2023-05-16T08:37:42.447Z,12.56
2023-05-16T08:40:12.203Z,12.63
2023-05-16T08:42:42.372Z,12.67
2023-05-16T08:45:12.684Z,12.72
2023-05-16T08:47:43.861Z,12.70
2023-05-16T08:50:13.305Z,12.72
2023-05-16T08:52:44.754Z,12.59
2023-05-16T08:55:14.870Z,12.44
2023-05-16T08:57:43.228Z,12.75
2023-05-16T09:00:13.384Z,12.83
2023-05-16T09:02:44.723Z,13.30
2023-05-16T09:05:14.478Z,13.32
2023-05-16T09:07:43.210Z,13.00
2023-05-16T09:10:12.305Z,13.15
2023-05-16T09:12:41.245Z,12.95
2023-05-16T09:15:10.995Z,13.05
2023-05-16T09:17:42.548Z,13.12
2023-05-16T09:20:14.607Z,13.13
2023-05-16T09:22:53.291Z,13.10
2023-05-16T09:25:30.343Z,13.21
2023-05-16T09:28:01.597Z,13.27
2023-05-16T09:30:32.247Z,13.18
2023-05-16T09:33:01.329Z,13.52
2023-05-16T09:35:44.303Z,13.64
2023-05-16T09:38:19.595Z,13.47
2023-05-16T09:40:47.917Z,13.37
2023-05-16T09:43:18.665Z,13.42
2023-05-16T09:45:49.141Z,13.29
2023-05-16T09:48:18.773Z,13.49
2023-05-16T09:50:54.432Z,13.47
2023-05-16T09:53:30.358Z,13.32
2023-05-16T09:56:03.555Z,13.18
2023-05-16T09:58:32.705Z,13.18
2023-05-16T10:01:01.112Z,13.03
2023-05-16T10:03:30.485Z,13.04
2023-05-16T10:06:02.065Z,13.06
2023-05-16T10:08:36.264Z,13.03
2023-05-16T10:11:06.579Z,12.86
2023-05-16T10:13:36.957Z,12.84
2023-05-16T10:16:09.137Z,12.82
2023-05-16T10:18:38.239Z,12.86
2023-05-16T10:21:11.979Z,12.76
2023-05-16T10:23:43.950Z,12.58
2023-05-16T10:26:14.910Z,12.66
2023-05-16T10:28:44.128Z,12.60
2023-05-16T10:31:13.191Z,12.68
2023-05-16T10:33:41.932Z,12.74
2023-05-16T10:36:13.227Z,12.47
2023-05-16T10:38:42.584Z,12.58
2023-05-16T10:41:11.510Z,12.75
2023-05-16T10:43:40.534Z,12.80
2023-05-16T10:46:12.705Z,12.98
2023-05-16T10:48:42.437Z,13.09
2023-05-16T10:51:36.772Z,13.29
2023-05-16T10:54:10.715Z,13.79
2023-05-16T10:56:39.250Z,14.06
2023-05-16T10:59:25.296Z,14.16
2023-05-16T11:01:57.842Z,14.15
2023-05-16T11:04:51.365Z,14.09
2023-05-16T11:07:23.349Z,14.26
2023-05-16T11:10:05.508Z,14.31
2023-05-16T11:12:45.340Z,13.65
2023-05-16T11:15:25.966Z,13.91
2023-05-16T11:18:07.079Z,13.70
2023-05-16T11:20:36.801Z,13.63
2023-05-16T11:23:27.214Z,13.67
2023-05-16T11:25:57.462Z,13.53
2023-05-16T11:28:27.420Z,13.48
2023-05-16T11:30:57.622Z,13.59
2023-05-16T11:33:27.881Z,13.55
2023-05-16T11:36:15.317Z,13.57
2023-05-16T11:38:46.072Z,13.52
2023-05-16T11:41:16.758Z,13.46
2023-05-16T11:43:46.324Z,13.36
2023-05-16T11:46:15.144Z,13.48
2023-05-16T11:48:45.529Z,13.55
2023-05-16T11:51:14.960Z,13.47
2023-05-16T11:53:43.204Z,13.32
2023-05-16T11:56:13.231Z,13.38
2023-05-16T11:58:42.307Z,13.50
2023-05-16T12:01:11.414Z,13.44
2023-05-16T12:03:39.993Z,13.30
2023-05-16T12:06:08.670Z,13.28
2023-05-16T12:08:37.151Z,13.15
2023-05-16T12:11:05.451Z,13.26
2023-05-16T12:13:35.557Z,13.19
2023-05-16T12:16:03.941Z,13.23
2023-05-16T12:18:32.262Z,13.02
2023-05-16T12:21:00.667Z,13.07
2023-05-16T12:23:29.510Z,13.18
2023-05-16T12:26:01.077Z,13.02
2023-05-16T12:28:35.837Z,13.16
2023-05-16T12:31:04.286Z,13.18
2023-05-16T12:33:32.795Z,13.17
2023-05-16T12:36:01.962Z,13.28
2023-05-16T12:38:30.666Z,13.32
2023-05-16T12:41:00.231Z,13.31
2023-05-16T12:43:28.753Z,13.52
2023-05-16T12:45:58.958Z,13.42
2023-05-16T12:48:35.408Z,13.52
2023-05-16T12:51:15.741Z,13.31
2023-05-16T12:53:54.405Z,13.55
2023-05-16T12:56:26.495Z,13.54
2023-05-16T12:58:54.745Z,13.40
2023-05-16T13:01:24.298Z,13.41
2023-05-16T13:03:52.700Z,13.47
2023-05-16T13:06:21.604Z,13.54
2023-05-16T13:08:50.144Z,13.69
2023-05-16T13:11:19.230Z,13.78
2023-05-16T13:13:47.512Z,13.83
2023-05-16T13:16:15.781Z,13.88
2023-05-16T13:18:45.606Z,13.67
2023-05-16T13:21:14.160Z,13.57
2023-05-16T13:23:42.568Z,13.66
2023-05-16T13:26:10.897Z,13.65
2023-05-16T13:28:39.119Z,13.58
2023-05-16T13:31:07.894Z,13.34
2023-05-16T13:33:36.439Z,13.50
2023-05-16T13:36:09.003Z,13.66
2023-05-16T13:38:38.029Z,13.44
2023-05-16T13:41:06.235Z,13.39
2023-05-16T13:43:34.555Z,13.54
2023-05-16T13:46:02.789Z,13.60
2023-05-16T13:48:31.053Z,13.42
2023-05-16T13:50:59.334Z,13.44
2023-05-16T13:53:29.024Z,13.27
2023-05-16T13:55:57.240Z,13.31
2023-05-16T13:58:25.637Z,13.05
2023-05-16T14:00:54.490Z,13.23
2023-05-16T14:03:23.397Z,13.21
2023-05-16T14:05:52.024Z,13.03
2023-05-16T14:08:20.248Z,13.11
2023-05-16T14:10:49.952Z,13.10
2023-05-16T14:13:18.142Z,12.89
2023-05-16T14:15:46.569Z,13.02
2023-05-16T14:18:14.884Z,12.96
2023-05-16T14:20:43.151Z,12.97
2023-05-16T14:23:11.401Z,13.02
2023-05-16T14:25:39.663Z,13.08
2023-05-16T14:28:09.342Z,12.87
2023-05-16T14:30:37.688Z,12.95
2023-05-16T14:33:06.313Z,12.85
2023-05-16T14:35:35.066Z,12.94
2023-05-16T14:38:03.311Z,12.83
2023-05-16T14:40:31.809Z,12.58
2023-05-16T14:42:59.916Z,12.55
2023-05-16T14:45:30.399Z,12.47
2023-05-16T14:47:58.828Z,12.37
2023-05-16T14:50:27.177Z,12.40
2023-05-16T14:52:55.841Z,12.34
2023-05-16T14:55:24.098Z,12.27
2023-05-16T14:57:57.205Z,12.25
2023-05-16T15:00:27.720Z,12.13
2023-05-16T15:02:57.697Z,12.18
2023-05-16T15:05:26.574Z,12.12
2023-05-16T15:07:55.159Z,12.02
2023-05-16T15:10:23.520Z,12.16
2023-05-16T15:12:51.798Z,12.00
2023-05-16T15:15:20.243Z,11.92
2023-05-16T15:17:48.684Z,11.73
2023-05-16T15:20:19.462Z,11.60
2023-05-16T15:22:49.722Z,11.61
2023-05-16T15:25:18.248Z,11.57
2023-05-16T15:27:46.621Z,11.55
2023-05-16T15:30:15.619Z,11.56
2023-05-16T15:32:43.990Z,11.47
2023-05-16T15:35:12.365Z,11.55
2023-05-16T15:37:42.394Z,11.40
2023-05-16T15:40:12.039Z,11.47
2023-05-16T15:42:42.333Z,11.45
2023-05-16T15:45:11.947Z,11.49
2023-05-16T15:47:40.308Z,11.42
2023-05-16T15:50:08.985Z,11.55
2023-05-16T15:52:37.405Z,11.45
2023-05-16T15:55:07.992Z,11.47
2023-05-16T15:57:36.345Z,11.51
2023-05-16T16:00:05.874Z,11.40
2023-05-16T16:02:40.366Z,11.38
2023-05-16T16:05:09.783Z,11.37
2023-05-16T16:07:38.006Z,11.46
2023-05-16T16:10:09.242Z,11.40
2023-05-16T16:12:37.616Z,11.31
2023-05-16T16:15:07.680Z,11.32
2023-05-16T16:17:36.266Z,11.35
2023-05-16T16:20:04.971Z,11.44
2023-05-16T16:22:33.233Z,11.34
2023-05-16T16:25:01.506Z,11.31
2023-05-16T16:27:31.415Z,11.28
2023-05-16T16:30:00.023Z,11.10
2023-05-16T16:32:28.361Z,11.03
2023-05-16T16:34:56.796Z,11.18
2023-05-16T16:37:25.217Z,11.24
2023-05-16T16:39:53.513Z,11.14
2023-05-16T16:42:21.676Z,10.95
2023-05-16T16:44:51.640Z,11.07
2023-05-16T16:47:20.496Z,10.95
2023-05-16T16:49:48.652Z,11.03
2023-05-16T16:52:16.859Z,11.01
2023-05-16T16:54:45.327Z,11.02
2023-05-16T16:57:13.592Z,11.12
2023-05-16T16:59:41.929Z,11.11
2023-05-16T17:02:11.871Z,11.10
2023-05-16T17:04:40.609Z,11.06
2023-05-16T17:07:09.086Z,11.06
2023-05-16T17:09:39.519Z,11.00
2023-05-16T17:12:14.952Z,10.83
2023-05-16T17:14:43.993Z,10.95
2023-05-16T17:17:13.798Z,10.83
2023-05-16T17:19:42.187Z,10.89
2023-05-16T17:22:10.745Z,10.95
2023-05-16T17:24:38.924Z,10.75
2023-05-16T17:27:07.845Z,10.89
2023-05-16T17:29:37.478Z,10.95
2023-05-16T17:32:06.630Z,10.95
2023-05-16T17:34:36.666Z,10.98
2023-05-16T17:37:06.663Z,10.91
2023-05-16T17:39:35.984Z,10.92
2023-05-16T17:42:07.122Z,10.92
2023-05-16T17:44:35.905Z,10.95
2023-05-16T17:47:04.374Z,11.05
2023-05-16T17:49:33.016Z,10.96
2023-05-16T17:52:03.136Z,11.01
2023-05-16T17:54:32.429Z,11.01
2023-05-16T17:57:01.765Z,11.00
2023-05-16T17:59:30.536Z,10.92
2023-05-16T18:01:59.409Z,10.97
2023-05-16T18:04:28.445Z,10.96
2023-05-16T18:06:57.288Z,10.95
2023-05-16T18:09:28.081Z,10.89
2023-05-16T18:11:56.962Z,10.90
2023-05-16T18:14:26.044Z,10.90
2023-05-16T18:16:54.842Z,10.90
2023-05-16T18:19:24.193Z,10.72
2023-05-16T18:21:53.506Z,10.84
2023-05-16T18:24:24.325Z,10.81
2023-05-16T18:26:54.217Z,10.66
2023-05-16T18:29:23.652Z,10.60
2023-05-16T18:31:51.865Z,10.65
2023-05-16T18:34:20.135Z,10.50
2023-05-16T18:36:49.188Z,10.57
2023-05-16T18:39:19.423Z,10.43
2023-05-16T18:41:48.547Z,10.52
2023-05-16T18:44:19.000Z,10.62
2023-05-16T18:46:48.990Z,10.62
2023-05-16T18:49:17.680Z,10.58
2023-05-16T18:51:46.312Z,10.55
2023-05-16T18:54:14.964Z,10.64
2023-05-16T18:56:43.834Z,10.56
2023-05-16T18:59:12.829Z,10.54
2023-05-16T19:01:42.530Z,10.54
2023-05-16T19:04:11.537Z,10.44
2023-05-16T19:06:39.762Z,10.39
2023-05-16T19:09:09.377Z,10.39
2023-05-16T19:11:38.065Z,10.33
2023-05-16T19:14:08.290Z,10.31
2023-05-16T19:16:37.279Z,10.26
2023-05-16T19:19:08.142Z,10.18
2023-05-16T19:21:36.638Z,10.15
2023-05-16T19:24:04.966Z,10.13
2023-05-16T19:26:33.855Z,10.12
2023-05-16T19:29:04.120Z,10.07
2023-05-16T19:31:33.923Z,9.98
2023-05-16T19:34:02.318Z,10.05
2023-05-16T19:36:32.063Z,10.02
2023-05-16T19:39:00.379Z,10.06
2023-05-16T19:41:29.278Z,10.03
2023-05-16T19:43:57.744Z,10.05
2023-05-16T19:46:25.992Z,10.11
2023-05-16T19:48:54.488Z,9.95
2023-05-16T19:51:33.471Z,10.05
2023-05-16T19:54:10.237Z,9.94
2023-05-16T19:56:38.693Z,9.93
2023-05-16T19:59:07.299Z,10.02
2023-05-16T20:01:35.894Z,9.95
2023-05-16T20:04:05.595Z,9.96
2023-05-16T20:06:34.068Z,9.98
2023-05-16T20:09:02.450Z,9.94
2023-05-16T20:11:32.140Z,9.89
2023-05-16T20:14:00.787Z,9.93
2023-05-16T20:16:29.321Z,9.88
2023-05-16T20:18:58.254Z,9.82
2023-05-16T20:21:26.711Z,9.83
2023-05-16T20:23:54.900Z,9.86
2023-05-16T20:26:23.165Z,9.87
2023-05-16T20:28:55.048Z,9.73
2023-05-16T20:31:23.501Z,9.80
2023-05-16T20:33:52.404Z,9.81
2023-05-16T20:36:20.811Z,9.71
2023-05-16T20:38:49.258Z,9.77
2023-05-16T20:41:17.664Z,9.86
2023-05-16T20:43:46.961Z,9.81
2023-05-16T20:46:16.953Z,9.79
2023-05-16T20:48:45.509Z,9.78
2023-05-16T20:51:13.769Z,9.79
2023-05-16T20:53:42.221Z,9.73
2023-05-16T20:56:10.527Z,9.63
2023-05-16T20:58:42.230Z,9.73
2023-05-16T21:01:12.170Z,9.71
2023-05-16T21:03:42.001Z,9.78
2023-05-16T21:06:10.477Z,9.79
2023-05-16T21:08:38.953Z,9.66
2023-05-16T21:11:07.325Z,9.65
2023-05-16T21:13:35.566Z,9.77
2023-05-16T21:16:07.908Z,9.74
2023-05-16T21:18:36.276Z,9.68
2023-05-16T21:21:06.642Z,9.79
2023-05-16T21:23:35.232Z,9.82
2023-05-16T21:26:03.612Z,9.71
2023-05-16T21:28:36.864Z,9.92
2023-05-16T21:31:08.264Z,9.95
2023-05-16T21:33:36.552Z,9.96
2023-05-16T21:36:07.074Z,9.93
2023-05-16T21:38:35.526Z,10.07
2023-05-16T21:41:03.836Z,10.04
2023-05-16T21:43:32.104Z,10.03
2023-05-16T21:46:00.595Z,10.11
2023-05-16T21:48:29.022Z,10.07
2023-05-16T21:50:57.453Z,9.96
2023-05-16T21:53:27.344Z,9.96
2023-05-16T21:55:55.676Z,10.07
2023-05-16T21:58:25.382Z,10.01
2023-05-16T22:00:53.985Z,10.08
2023-05-16T22:03:23.079Z,10.14
2023-05-16T22:05:51.716Z,10.08
2023-05-16T22:08:19.993Z,10.11
2023-05-16T22:10:49.890Z,10.02
2023-05-16T22:13:20.089Z,10.03
2023-05-16T22:16:03.338Z,10.00
2023-05-16T22:18:33.443Z,10.04
2023-05-16T22:21:02.374Z,10.05
2023-05-16T22:23:31.091Z,10.06
2023-05-16T22:26:00.808Z,10.02
2023-05-16T22:28:29.203Z,10.04
2023-05-16T22:30:57.474Z,10.11
2023-05-16T22:33:25.811Z,10.10
2023-05-16T22:35:54.198Z,10.12
2023-05-16T22:38:22.513Z,10.18
2023-05-16T22:40:51.221Z,10.05
2023-05-16T22:43:21.261Z,10.20
2023-05-16T22:45:51.638Z,10.11
2023-05-16T22:48:20.102Z,10.21
2023-05-16T22:50:48.348Z,10.23
2023-05-16T22:53:16.594Z,10.28
2023-05-16T22:55:44.827Z,10.33
2023-05-16T22:58:13.099Z,10.32
2023-05-16T23:00:42.839Z,10.33
2023-05-16T23:03:11.224Z,10.34
2023-05-16T23:05:39.633Z,10.42
2023-05-16T23:08:07.868Z,10.47
2023-05-16T23:10:36.749Z,10.41
2023-05-16T23:13:05.035Z,10.42
2023-05-16T23:15:33.177Z,10.38
2023-05-16T23:18:02.859Z,10.35
2023-05-16T23:20:31.160Z,10.29
2023-05-16T23:22:59.708Z,10.30
2023-05-16T23:25:28.185Z,10.28
2023-05-16T23:27:58.037Z,10.28
2023-05-16T23:30:26.278Z,10.27
2023-05-16T23:32:54.791Z,10.29
2023-05-16T23:35:24.511Z,10.31
2023-05-16T23:37:52.889Z,10.31
2023-05-16T23:40:21.131Z,10.28
2023-05-16T23:42:49.328Z,10.10
2023-05-16T23:45:17.790Z,10.11
2023-05-16T23:47:46.175Z,10.28
2023-05-16T23:50:15.848Z,10.21
2023-05-16T23:52:45.673Z,10.16
2023-05-16T23:55:14.117Z,10.18
2023-05-16T23:57:42.388Z,10.07
